sensor_id;sensor_type;location;lat;lon;timestamp;pressure;altitude;pressure_sealevel;temperature;humidity
26657;BME280;14279;50.010;8.260;2023-11-25T00:02:12;99760.53;;;3.83;77.05
26657;BME280;14279;50.010;8.260;2023-11-25T00:04:37;99765.97;;;3.72;77.01
26657;BME280;14279;50.010;8.260;2023-11-25T00:07:02;99770.91;;;3.80;77.55
26657;BME280;14279;50.010;8.260;2023-11-25T00:09:28;99803.41;;;3.84;76.69
26657;BME280;14279;50.010;8.260;2023-11-25T00:11:53;99782.31;;;3.71;76.29
26657;BME280;14279;50.010;8.260;2023-11-25T00:14:18;99784.72;;;3.78;77.35
26657;BME280;14279;50.010;8.260;2023-11-25T00:16:43;99781.88;;;3.87;76.90
26657;BME280;14279;50.010;8.260;2023-11-25T00:19:09;99788.94;;;3.80;77.42
26657;BME280;14279;50.010;8.260;2023-11-25T00:21:36;99812.16;;;3.79;76.78
26657;BME280;14279;50.010;8.260;2023-11-25T00:24:01;99802.66;;;3.81;77.20
26657;BME280;14279;50.010;8.260;2023-11-25T00:26:28;99804.34;;;3.82;76.52
26657;BME280;14279;50.010;8.260;2023-11-25T00:28:53;99794.88;;;3.84;76.26
26657;BME280;14279;50.010;8.260;2023-11-25T00:31:18;99807.03;;;3.77;76.63
26657;BME280;14279;50.010;8.260;2023-11-25T00:33:44;99795.03;;;3.78;76.88
26657;BME280;14279;50.010;8.260;2023-11-25T00:36:09;99800.69;;;3.90;76.48
26657;BME280;14279;50.010;8.260;2023-11-25T00:38:36;99808.63;;;3.83;76.68
26657;BME280;14279;50.010;8.260;2023-11-25T00:41:03;99801.41;;;3.96;76.55
26657;BME280;14279;50.010;8.260;2023-11-25T00:43:31;99817.75;;;3.95;76.43
26657;BME280;14279;50.010;8.260;2023-11-25T00:45:57;99817.75;;;3.93;76.59
26657;BME280;14279;50.010;8.260;2023-11-25T00:48:23;99818.78;;;3.87;76.29
26657;BME280;14279;50.010;8.260;2023-11-25T00:50:48;99813.84;;;3.80;75.89
26657;BME280;14279;50.010;8.260;2023-11-25T00:53:14;99823.88;;;3.89;75.88
26657;BME280;14279;50.010;8.260;2023-11-25T00:55:40;99801.06;;;3.76;75.93
26657;BME280;14279;50.010;8.260;2023-11-25T00:58:05;99822.56;;;3.74;76.04
26657;BME280;14279;50.010;8.260;2023-11-25T01:00:31;99832.75;;;3.79;76.41
26657;BME280;14279;50.010;8.260;2023-11-25T01:02:56;99834.47;;;3.78;75.89
26657;BME280;14279;50.010;8.260;2023-11-25T01:05:22;99828.50;;;3.76;76.23
26657;BME280;14279;50.010;8.260;2023-11-25T01:07:48;99824.25;;;3.75;76.20
26657;BME280;14279;50.010;8.260;2023-11-25T01:10:14;99829.31;;;3.78;75.78
26657;BME280;14279;50.010;8.260;2023-11-25T01:12:39;99829.31;;;3.78;75.88
26657;BME280;14279;50.010;8.260;2023-11-25T01:15:05;99837.03;;;3.78;75.65
26657;BME280;14279;50.010;8.260;2023-11-25T01:17:30;99845.84;;;3.71;75.23
26657;BME280;14279;50.010;8.260;2023-11-25T01:19:56;99832.91;;;3.72;75.20
26657;BME280;14279;50.010;8.260;2023-11-25T01:22:23;99862.88;;;3.75;75.55
26657;BME280;14279;50.010;8.260;2023-11-25T01:24:50;99857.03;;;3.68;74.83
26657;BME280;14279;50.010;8.260;2023-11-25T01:27:15;99860.47;;;3.69;75.37
26657;BME280;14279;50.010;8.260;2023-11-25T01:29:41;99851.88;;;3.68;74.98
26657;BME280;14279;50.010;8.260;2023-11-25T01:32:06;99869.81;;;3.73;75.25
26657;BME280;14279;50.010;8.260;2023-11-25T01:34:31;99873.28;;;3.72;74.89
26657;BME280;14279;50.010;8.260;2023-11-25T01:36:57;99862.03;;;3.74;74.78
26657;BME280;14279;50.010;8.260;2023-11-25T01:39:22;99873.16;;;3.76;75.08
26657;BME280;14279;50.010;8.260;2023-11-25T01:41:50;99887.09;;;3.68;74.67
26657;BME280;14279;50.010;8.260;2023-11-25T01:44:16;99882.84;;;3.67;74.72
26657;BME280;14279;50.010;8.260;2023-11-25T01:46:42;99889.75;;;3.65;74.15
26657;BME280;14279;50.010;8.260;2023-11-25T01:49:14;99888.06;;;3.64;73.87
26657;BME280;14279;50.010;8.260;2023-11-25T01:51:41;99899.28;;;3.61;74.06
26657;BME280;14279;50.010;8.260;2023-11-25T01:54:08;99908.56;;;3.67;74.13
26657;BME280;14279;50.010;8.260;2023-11-25T01:56:34;99906.63;;;3.75;73.74
26657;BME280;14279;50.010;8.260;2023-11-25T01:59:01;99902.41;;;3.72;73.94
26657;BME280;14279;50.010;8.260;2023-11-25T02:01:27;99910.28;;;3.66;73.76
26657;BME280;14279;50.010;8.260;2023-11-25T02:03:55;99910.41;;;3.61;73.84
26657;BME280;14279;50.010;8.260;2023-11-25T02:06:21;99914.81;;;3.58;73.74
26657;BME280;14279;50.010;8.260;2023-11-25T02:08:49;99914.69;;;3.63;73.70
26657;BME280;14279;50.010;8.260;2023-11-25T02:11:14;99918.81;;;3.70;73.89
26657;BME280;14279;50.010;8.260;2023-11-25T02:13:39;99917.31;;;3.59;74.50
26657;BME280;14279;50.010;8.260;2023-11-25T02:16:05;99919.78;;;3.64;74.17
26657;BME280;14279;50.010;8.260;2023-11-25T02:18:30;99930.63;;;3.41;75.61
26657;BME280;14279;50.010;8.260;2023-11-25T02:20:56;99941.63;;;3.48;75.96
26657;BME280;14279;50.010;8.260;2023-11-25T02:23:22;99940.53;;;3.58;76.01
26657;BME280;14279;50.010;8.260;2023-11-25T02:25:51;99938.53;;;3.33;76.86
26657;BME280;14279;50.010;8.260;2023-11-25T02:28:18;99933.41;;;3.31;78.20
26657;BME280;14279;50.010;8.260;2023-11-25T02:30:45;99942.81;;;3.34;78.42
26657;BME280;14279;50.010;8.260;2023-11-25T02:33:12;99935.19;;;3.29;78.72
26657;BME280;14279;50.010;8.260;2023-11-25T02:35:37;99942.38;;;3.51;78.06
26657;BME280;14279;50.010;8.260;2023-11-25T02:38:03;99945.00;;;3.50;77.75
26657;BME280;14279;50.010;8.260;2023-11-25T02:40:30;99949.66;;;3.71;77.22
26657;BME280;14279;50.010;8.260;2023-11-25T02:42:55;99952.59;;;3.56;76.46
26657;BME280;14279;50.010;8.260;2023-11-25T02:45:21;99954.84;;;3.70;76.21
26657;BME280;14279;50.010;8.260;2023-11-25T02:47:50;99958.13;;;3.75;76.08
26657;BME280;14279;50.010;8.260;2023-11-25T02:50:16;99959.47;;;3.90;75.62
26657;BME280;14279;50.010;8.260;2023-11-25T02:52:42;99973.22;;;3.90;75.31
26657;BME280;14279;50.010;8.260;2023-11-25T02:55:08;99967.53;;;3.76;75.02
26657;BME280;14279;50.010;8.260;2023-11-25T02:57:37;99979.31;;;3.86;75.49
26657;BME280;14279;50.010;8.260;2023-11-25T03:00:04;99977.63;;;3.85;75.72
26657;BME280;14279;50.010;8.260;2023-11-25T03:02:36;99979.88;;;3.99;75.33
26657;BME280;14279;50.010;8.260;2023-11-25T03:05:01;99972.44;;;3.87;74.30
26657;BME280;14279;50.010;8.260;2023-11-25T03:07:26;99963.06;;;3.84;74.05
26657;BME280;14279;50.010;8.260;2023-11-25T03:09:54;99956.47;;;4.09;73.66
26657;BME280;14279;50.010;8.260;2023-11-25T03:12:20;99946.25;;;4.04;73.50
26657;BME280;14279;50.010;8.260;2023-11-25T03:14:45;99941.09;;;4.05;73.53
26657;BME280;14279;50.010;8.260;2023-11-25T03:17:11;99957.38;;;4.06;73.21
26657;BME280;14279;50.010;8.260;2023-11-25T03:19:58;99974.44;;;4.10;72.80
26657;BME280;14279;50.010;8.260;2023-11-25T03:22:24;99962.72;;;3.98;73.25
26657;BME280;14279;50.010;8.260;2023-11-25T03:24:51;99982.84;;;3.82;73.60
26657;BME280;14279;50.010;8.260;2023-11-25T03:27:16;99978.91;;;4.03;73.18
26657;BME280;14279;50.010;8.260;2023-11-25T03:29:41;99981.28;;;4.11;72.60
26657;BME280;14279;50.010;8.260;2023-11-25T03:32:07;99990.03;;;4.04;73.15
26657;BME280;14279;50.010;8.260;2023-11-25T03:34:35;100003.38;;;3.85;73.68
26657;BME280;14279;50.010;8.260;2023-11-25T03:37:00;99994.28;;;4.06;73.40
26657;BME280;14279;50.010;8.260;2023-11-25T03:39:25;99990.38;;;3.90;73.90
26657;BME280;14279;50.010;8.260;2023-11-25T03:41:52;99991.88;;;3.99;74.52
26657;BME280;14279;50.010;8.260;2023-11-25T03:44:23;99988.06;;;3.79;74.80
26657;BME280;14279;50.010;8.260;2023-11-25T03:46:50;99995.50;;;3.91;74.26
26657;BME280;14279;50.010;8.260;2023-11-25T03:49:15;99990.13;;;3.65;75.19
26657;BME280;14279;50.010;8.260;2023-11-25T03:51:40;100000.38;;;3.68;74.42
26657;BME280;14279;50.010;8.260;2023-11-25T03:54:06;100002.25;;;3.59;74.87
26657;BME280;14279;50.010;8.260;2023-11-25T03:56:31;99995.88;;;3.76;74.53
26657;BME280;14279;50.010;8.260;2023-11-25T03:58:56;99995.03;;;3.75;75.16
26657;BME280;14279;50.010;8.260;2023-11-25T04:01:21;99987.97;;;3.84;75.31
26657;BME280;14279;50.010;8.260;2023-11-25T04:03:47;100002.72;;;3.77;74.90
26657;BME280;14279;50.010;8.260;2023-11-25T04:06:13;100007.56;;;3.89;74.24
26657;BME280;14279;50.010;8.260;2023-11-25T04:08:38;99996.41;;;3.89;74.50
26657;BME280;14279;50.010;8.260;2023-11-25T04:11:05;99988.19;;;3.74;74.86
26657;BME280;14279;50.010;8.260;2023-11-25T04:13:31;99994.00;;;3.83;74.97
26657;BME280;14279;50.010;8.260;2023-11-25T04:15:56;99998.19;;;3.87;75.42
26657;BME280;14279;50.010;8.260;2023-11-25T04:18:21;99995.97;;;3.73;75.82
26657;BME280;14279;50.010;8.260;2023-11-25T04:20:49;99995.97;;;3.71;76.04
26657;BME280;14279;50.010;8.260;2023-11-25T04:23:16;99991.50;;;3.80;76.72
26657;BME280;14279;50.010;8.260;2023-11-25T04:25:42;100005.22;;;3.80;76.00
26657;BME280;14279;50.010;8.260;2023-11-25T04:28:10;99993.47;;;3.68;76.72
26657;BME280;14279;50.010;8.260;2023-11-25T04:30:38;100009.56;;;3.78;76.44
26657;BME280;14279;50.010;8.260;2023-11-25T04:33:04;100017.19;;;3.83;76.40
26657;BME280;14279;50.010;8.260;2023-11-25T04:35:29;100011.31;;;3.76;76.48
26657;BME280;14279;50.010;8.260;2023-11-25T04:37:55;100007.91;;;3.75;76.57
26657;BME280;14279;50.010;8.260;2023-11-25T04:40:20;100020.91;;;3.71;77.06
26657;BME280;14279;50.010;8.260;2023-11-25T04:42:45;100011.41;;;3.73;77.19
26657;BME280;14279;50.010;8.260;2023-11-25T04:45:11;100011.34;;;3.74;77.19
26657;BME280;14279;50.010;8.260;2023-11-25T04:47:44;100005.22;;;3.80;77.19
26657;BME280;14279;50.010;8.260;2023-11-25T04:50:11;99998.28;;;3.84;77.64
26657;BME280;14279;50.010;8.260;2023-11-25T04:52:38;99992.66;;;3.68;78.44
26657;BME280;14279;50.010;8.260;2023-11-25T04:55:04;100006.16;;;3.76;78.42
26657;BME280;14279;50.010;8.260;2023-11-25T04:57:29;99994.34;;;3.69;78.90
26657;BME280;14279;50.010;8.260;2023-11-25T04:59:54;100003.91;;;3.62;78.93
26657;BME280;14279;50.010;8.260;2023-11-25T05:02:20;100000.56;;;3.60;79.46
26657;BME280;14279;50.010;8.260;2023-11-25T05:04:46;99996.03;;;3.70;79.27
26657;BME280;14279;50.010;8.260;2023-11-25T05:07:11;100003.88;;;3.64;80.14
26657;BME280;14279;50.010;8.260;2023-11-25T05:09:36;100006.34;;;3.70;80.03
26657;BME280;14279;50.010;8.260;2023-11-25T05:12:04;100014.13;;;3.67;80.21
26657;BME280;14279;50.010;8.260;2023-11-25T05:14:31;100007.16;;;3.70;80.45
26657;BME280;14279;50.010;8.260;2023-11-25T05:16:57;100010.50;;;3.74;80.21
26657;BME280;14279;50.010;8.260;2023-11-25T05:19:22;100002.06;;;3.69;80.65
26657;BME280;14279;50.010;8.260;2023-11-25T05:21:48;100003.00;;;3.65;80.64
26657;BME280;14279;50.010;8.260;2023-11-25T05:24:13;100001.94;;;3.73;80.70
26657;BME280;14279;50.010;8.260;2023-11-25T05:26:38;100013.19;;;3.71;80.62
26657;BME280;14279;50.010;8.260;2023-11-25T05:29:04;100002.81;;;3.72;80.67
26657;BME280;14279;50.010;8.260;2023-11-25T05:31:30;100007.78;;;3.80;80.12
26657;BME280;14279;50.010;8.260;2023-11-25T05:33:59;100004.38;;;3.80;80.29
26657;BME280;14279;50.010;8.260;2023-11-25T05:36:24;100003.53;;;3.79;80.02
26657;BME280;14279;50.010;8.260;2023-11-25T05:38:49;100000.72;;;3.88;79.97
26657;BME280;14279;50.010;8.260;2023-11-25T05:41:15;100001.75;;;3.83;80.10
26657;BME280;14279;50.010;8.260;2023-11-25T05:43:40;100007.03;;;3.75;80.26
26657;BME280;14279;50.010;8.260;2023-11-25T05:46:06;99992.47;;;3.75;80.64
26657;BME280;14279;50.010;8.260;2023-11-25T05:48:31;100008.59;;;3.84;80.20
26657;BME280;14279;50.010;8.260;2023-11-25T05:50:56;100001.63;;;3.87;80.17
26657;BME280;14279;50.010;8.260;2023-11-25T05:53:23;100002.38;;;3.91;79.93
26657;BME280;14279;50.010;8.260;2023-11-25T05:55:48;100009.22;;;3.92;79.73
26657;BME280;14279;50.010;8.260;2023-11-25T05:58:13;99996.31;;;3.94;79.74
26657;BME280;14279;50.010;8.260;2023-11-25T06:00:39;99996.41;;;3.89;80.05
26657;BME280;14279;50.010;8.260;2023-11-25T06:03:05;100002.63;;;3.80;80.10
26657;BME280;14279;50.010;8.260;2023-11-25T06:05:30;100011.94;;;3.86;80.14
26657;BME280;14279;50.010;8.260;2023-11-25T06:07:56;100008.31;;;3.95;79.55
26657;BME280;14279;50.010;8.260;2023-11-25T06:10:22;100010.22;;;3.86;79.78
26657;BME280;14279;50.010;8.260;2023-11-25T06:12:48;100011.03;;;3.88;79.67
26657;BME280;14279;50.010;8.260;2023-11-25T06:15:13;100001.56;;;3.89;79.95
26657;BME280;14279;50.010;8.260;2023-11-25T06:17:39;100014.50;;;3.86;80.02
26657;BME280;14279;50.010;8.260;2023-11-25T06:20:05;100014.69;;;3.80;79.65
26657;BME280;14279;50.010;8.260;2023-11-25T06:22:31;100006.66;;;3.92;79.74
26657;BME280;14279;50.010;8.260;2023-11-25T06:24:56;100008.47;;;3.88;79.60
26657;BME280;14279;50.010;8.260;2023-11-25T06:27:37;99994.72;;;3.88;79.50
26657;BME280;14279;50.010;8.260;2023-11-25T06:30:03;99993.75;;;3.94;79.72
26657;BME280;14279;50.010;8.260;2023-11-25T06:32:28;99996.47;;;3.87;79.70
26657;BME280;14279;50.010;8.260;2023-11-25T06:34:54;100001.63;;;3.87;79.51
26657;BME280;14279;50.010;8.260;2023-11-25T06:37:23;100009.16;;;3.95;79.63
26657;BME280;14279;50.010;8.260;2023-11-25T06:39:48;100017.88;;;3.89;79.29
26657;BME280;14279;50.010;8.260;2023-11-25T06:42:14;100022.69;;;4.03;78.99
26657;BME280;14279;50.010;8.260;2023-11-25T06:44:39;100016.63;;;4.06;78.78
26657;BME280;14279;50.010;8.260;2023-11-25T06:47:06;100016.69;;;4.03;78.69
26657;BME280;14279;50.010;8.260;2023-11-25T06:49:53;100031.19;;;4.07;79.15
26657;BME280;14279;50.010;8.260;2023-11-25T06:52:27;100015.94;;;3.99;78.60
26657;BME280;14279;50.010;8.260;2023-11-25T06:54:52;100021.69;;;4.09;78.87
26657;BME280;14279;50.010;8.260;2023-11-25T06:57:17;100014.97;;;4.03;78.94
26657;BME280;14279;50.010;8.260;2023-11-25T06:59:43;100020.22;;;3.99;79.14
26657;BME280;14279;50.010;8.260;2023-11-25T07:02:13;100021.19;;;3.95;79.26
26657;BME280;14279;50.010;8.260;2023-11-25T07:04:38;100010.97;;;3.91;79.23
26657;BME280;14279;50.010;8.260;2023-11-25T07:07:04;100016.84;;;3.97;79.23
26657;BME280;14279;50.010;8.260;2023-11-25T07:09:29;100005.91;;;3.87;79.65
26657;BME280;14279;50.010;8.260;2023-11-25T07:11:55;100009.41;;;3.84;79.86
26657;BME280;14279;50.010;8.260;2023-11-25T07:14:21;100004.06;;;3.94;79.23
26657;BME280;14279;50.010;8.260;2023-11-25T07:16:47;100003.03;;;3.99;79.07
26657;BME280;14279;50.010;8.260;2023-11-25T07:19:12;100006.44;;;4.01;78.95
26657;BME280;14279;50.010;8.260;2023-11-25T07:21:38;100013.91;;;4.11;78.41
26657;BME280;14279;50.010;8.260;2023-11-25T07:24:03;100004.75;;;3.99;78.07
26657;BME280;14279;50.010;8.260;2023-11-25T07:26:29;100003.00;;;4.01;78.52
26657;BME280;14279;50.010;8.260;2023-11-25T07:28:54;100009.84;;;4.02;78.29
26657;BME280;14279;50.010;8.260;2023-11-25T07:31:21;100012.22;;;4.10;78.69
26657;BME280;14279;50.010;8.260;2023-11-25T07:33:47;100008.88;;;4.06;78.22
26657;BME280;14279;50.010;8.260;2023-11-25T07:36:12;100002.63;;;4.16;78.07
26657;BME280;14279;50.010;8.260;2023-11-25T07:38:38;100011.97;;;4.20;77.43
26657;BME280;14279;50.010;8.260;2023-11-25T07:41:03;100009.75;;;4.06;78.36
26657;BME280;14279;50.010;8.260;2023-11-25T07:43:29;100015.19;;;4.29;77.66
26657;BME280;14279;50.010;8.260;2023-11-25T07:45:55;100017.00;;;4.25;77.43
26657;BME280;14279;50.010;8.260;2023-11-25T07:48:21;100025.84;;;4.15;77.35
26657;BME280;14279;50.010;8.260;2023-11-25T07:50:46;100015.34;;;4.22;77.54
26657;BME280;14279;50.010;8.260;2023-11-25T07:53:12;100011.81;;;4.27;77.35
26657;BME280;14279;50.010;8.260;2023-11-25T07:55:38;100002.56;;;4.18;77.46
26657;BME280;14279;50.010;8.260;2023-11-25T07:58:03;100007.84;;;4.46;76.49
26657;BME280;14279;50.010;8.260;2023-11-25T08:00:28;100012.91;;;4.51;76.73
26657;BME280;14279;50.010;8.260;2023-11-25T08:02:54;100015.75;;;4.40;76.97
26657;BME280;14279;50.010;8.260;2023-11-25T08:05:23;100019.31;;;4.36;76.93
26657;BME280;14279;50.010;8.260;2023-11-25T08:07:53;100019.91;;;4.46;76.48
26657;BME280;14279;50.010;8.260;2023-11-25T08:10:20;100003.63;;;4.45;76.35
26657;BME280;14279;50.010;8.260;2023-11-25T08:12:46;100006.06;;;4.48;76.14
26657;BME280;14279;50.010;8.260;2023-11-25T08:15:14;99998.78;;;4.64;75.61
26657;BME280;14279;50.010;8.260;2023-11-25T08:17:41;100004.38;;;4.47;76.37
26657;BME280;14279;50.010;8.260;2023-11-25T08:20:11;100001.72;;;4.52;76.83
26657;BME280;14279;50.010;8.260;2023-11-25T08:22:37;99998.47;;;4.44;77.35
26657;BME280;14279;50.010;8.260;2023-11-25T08:25:04;99998.25;;;4.53;77.46
26657;BME280;14279;50.010;8.260;2023-11-25T08:27:31;99991.19;;;4.27;76.89
26657;BME280;14279;50.010;8.260;2023-11-25T08:29:56;100001.19;;;4.39;77.09
26657;BME280;14279;50.010;8.260;2023-11-25T08:32:21;99997.97;;;4.31;77.39
26657;BME280;14279;50.010;8.260;2023-11-25T08:34:47;99999.38;;;4.08;79.19
26657;BME280;14279;50.010;8.260;2023-11-25T08:37:12;100002.84;;;4.07;79.68
26657;BME280;14279;50.010;8.260;2023-11-25T08:39:38;100007.97;;;4.09;80.13
26657;BME280;14279;50.010;8.260;2023-11-25T08:42:32;99996.13;;;4.01;80.12
26657;BME280;14279;50.010;8.260;2023-11-25T08:45:09;99995.88;;;4.11;79.77
26657;BME280;14279;50.010;8.260;2023-11-25T08:47:34;99993.75;;;4.28;78.88
26657;BME280;14279;50.010;8.260;2023-11-25T08:50:01;99990.44;;;4.23;78.25
26657;BME280;14279;50.010;8.260;2023-11-25T08:52:26;99987.63;;;4.32;77.86
26657;BME280;14279;50.010;8.260;2023-11-25T08:54:53;99986.84;;;4.60;76.70
26657;BME280;14279;50.010;8.260;2023-11-25T08:57:18;99994.00;;;4.50;76.98
26657;BME280;14279;50.010;8.260;2023-11-25T08:59:45;99994.38;;;4.36;77.12
26657;BME280;14279;50.010;8.260;2023-11-25T09:02:11;99996.25;;;4.30;77.32
26657;BME280;14279;50.010;8.260;2023-11-25T09:04:39;100001.22;;;4.38;76.95
26657;BME280;14279;50.010;8.260;2023-11-25T09:07:08;100002.63;;;4.49;77.31
26657;BME280;14279;50.010;8.260;2023-11-25T09:09:37;100000.22;;;4.43;76.70
26657;BME280;14279;50.010;8.260;2023-11-25T09:12:02;100005.19;;;4.49;76.49
26657;BME280;14279;50.010;8.260;2023-11-25T09:14:28;100006.56;;;4.63;76.26
26657;BME280;14279;50.010;8.260;2023-11-25T09:16:54;100011.84;;;4.58;76.17
26657;BME280;14279;50.010;8.260;2023-11-25T09:19:20;100012.75;;;4.87;75.63
26657;BME280;14279;50.010;8.260;2023-11-25T09:21:45;100007.41;;;4.63;76.21
26657;BME280;14279;50.010;8.260;2023-11-25T09:24:10;100003.72;;;4.72;75.35
26657;BME280;14279;50.010;8.260;2023-11-25T09:26:37;100026.22;;;4.67;75.80
26657;BME280;14279;50.010;8.260;2023-11-25T09:29:02;100016.91;;;4.61;75.94
26657;BME280;14279;50.010;8.260;2023-11-25T09:31:27;100005.59;;;4.67;76.01
26657;BME280;14279;50.010;8.260;2023-11-25T09:33:53;100009.75;;;4.73;76.27
26657;BME280;14279;50.010;8.260;2023-11-25T09:36:19;99999.88;;;4.87;76.04
26657;BME280;14279;50.010;8.260;2023-11-25T09:38:47;99996.28;;;4.93;75.80
26657;BME280;14279;50.010;8.260;2023-11-25T09:41:13;99999.94;;;4.54;77.99
26657;BME280;14279;50.010;8.260;2023-11-25T09:43:39;99997.16;;;4.29;78.85
26657;BME280;14279;50.010;8.260;2023-11-25T09:46:05;100005.56;;;4.35;79.27
26657;BME280;14279;50.010;8.260;2023-11-25T09:48:40;99995.25;;;4.35;79.48
26657;BME280;14279;50.010;8.260;2023-11-25T09:51:07;99997.66;;;4.43;79.55
26657;BME280;14279;50.010;8.260;2023-11-25T09:53:36;99971.94;;;4.40;79.29
26657;BME280;14279;50.010;8.260;2023-11-25T09:56:11;99994.22;;;4.43;79.08
26657;BME280;14279;50.010;8.260;2023-11-25T09:58:44;99995.88;;;4.45;79.44
26657;BME280;14279;50.010;8.260;2023-11-25T10:01:12;99981.16;;;4.49;78.91
26657;BME280;14279;50.010;8.260;2023-11-25T10:07:45;99981.66;;;4.93;78.98
26657;BME280;14279;50.010;8.260;2023-11-25T10:10:32;99982.94;;;4.78;79.22
26657;BME280;14279;50.010;8.260;2023-11-25T10:12:57;99983.88;;;4.76;79.91
26657;BME280;14279;50.010;8.260;2023-11-25T10:15:24;99976.25;;;4.71;79.45
26657;BME280;14279;50.010;8.260;2023-11-25T10:17:50;99986.63;;;4.70;79.63
26657;BME280;14279;50.010;8.260;2023-11-25T10:20:15;99977.53;;;4.88;79.05
26657;BME280;14279;50.010;8.260;2023-11-25T10:22:54;99977.31;;;4.94;79.22
26657;BME280;14279;50.010;8.260;2023-11-25T10:25:23;99976.88;;;4.79;79.39
26657;BME280;14279;50.010;8.260;2023-11-25T10:27:51;99970.63;;;4.88;79.02
26657;BME280;14279;50.010;8.260;2023-11-25T10:30:17;99963.03;;;4.52;79.82
26657;BME280;14279;50.010;8.260;2023-11-25T10:32:43;99973.97;;;4.60;80.47
26657;BME280;14279;50.010;8.260;2023-11-25T10:35:09;99980.72;;;4.66;80.27
26657;BME280;14279;50.010;8.260;2023-11-25T10:37:37;99966.75;;;5.03;79.11
26657;BME280;14279;50.010;8.260;2023-11-25T10:40:05;99969.16;;;5.09;78.49
26657;BME280;14279;50.010;8.260;2023-11-25T10:42:31;99961.34;;;5.11;77.88
26657;BME280;14279;50.010;8.260;2023-11-25T10:44:57;99962.81;;;5.20;78.48
26657;BME280;14279;50.010;8.260;2023-11-25T10:47:31;99953.00;;;5.31;77.91
26657;BME280;14279;50.010;8.260;2023-11-25T10:49:57;99950.28;;;5.07;78.71
26657;BME280;14279;50.010;8.260;2023-11-25T10:52:23;99956.09;;;4.84;79.72
26657;BME280;14279;50.010;8.260;2023-11-25T10:54:50;99948.19;;;4.92;79.70
26657;BME280;14279;50.010;8.260;2023-11-25T10:57:19;99935.38;;;4.89;79.88
26657;BME280;14279;50.010;8.260;2023-11-25T10:59:45;99940.13;;;5.03;79.70
26657;BME280;14279;50.010;8.260;2023-11-25T11:02:34;99931.59;;;4.99;79.57
26657;BME280;14279;50.010;8.260;2023-11-25T11:05:14;99922.88;;;5.03;79.16
26657;BME280;14279;50.010;8.260;2023-11-25T11:07:45;99919.81;;;5.47;77.73
26657;BME280;14279;50.010;8.260;2023-11-25T11:10:17;99924.88;;;5.23;78.00
26657;BME280;14279;50.010;8.260;2023-11-25T11:12:53;99919.47;;;5.31;78.39
26657;BME280;14279;50.010;8.260;2023-11-25T11:15:22;99904.06;;;5.28;78.13
26657;BME280;14279;50.010;8.260;2023-11-25T11:18:13;99908.19;;;5.61;77.70
26657;BME280;14279;50.010;8.260;2023-11-25T11:20:44;99906.75;;;5.25;77.26
26657;BME280;14279;50.010;8.260;2023-11-25T11:23:12;99903.47;;;5.47;76.75
26657;BME280;14279;50.010;8.260;2023-11-25T11:25:42;99899.19;;;5.19;77.10
26657;BME280;14279;50.010;8.260;2023-11-25T11:33:45;99896.50;;;5.76;75.53
26657;BME280;14279;50.010;8.260;2023-11-25T11:36:21;99884.66;;;5.70;75.30
26657;BME280;14279;50.010;8.260;2023-11-25T11:38:53;99882.16;;;5.67;75.20
26657;BME280;14279;50.010;8.260;2023-11-25T11:44:17;99862.50;;;5.37;76.78
26657;BME280;14279;50.010;8.260;2023-11-25T11:46:43;99873.97;;;5.29;77.20
26657;BME280;14279;50.010;8.260;2023-11-25T11:49:32;99877.88;;;5.40;77.83
26657;BME280;14279;50.010;8.260;2023-11-25T11:52:33;99870.50;;;5.55;77.21
26657;BME280;14279;50.010;8.260;2023-11-25T11:55:33;99876.28;;;5.63;77.24
26657;BME280;14279;50.010;8.260;2023-11-25T11:58:37;99855.72;;;5.60;77.09
26657;BME280;14279;50.010;8.260;2023-11-25T12:02:16;99883.59;;;5.76;76.40
26657;BME280;14279;50.010;8.260;2023-11-25T12:04:43;99862.59;;;5.60;76.38
26657;BME280;14279;50.010;8.260;2023-11-25T12:07:08;99862.75;;;5.55;76.37
26657;BME280;14279;50.010;8.260;2023-11-25T12:09:34;99863.13;;;5.69;76.50
26657;BME280;14279;50.010;8.260;2023-11-25T12:11:59;99850.44;;;5.63;77.10
26657;BME280;14279;50.010;8.260;2023-11-25T12:14:27;99864.16;;;5.65;76.75
26657;BME280;14279;50.010;8.260;2023-11-25T12:16:53;99837.03;;;5.52;76.80
26657;BME280;14279;50.010;8.260;2023-11-25T12:19:18;99852.25;;;5.61;76.84
26657;BME280;14279;50.010;8.260;2023-11-25T12:21:43;99864.78;;;5.72;76.33
26657;BME280;14279;50.010;8.260;2023-11-25T12:24:12;99849.56;;;5.64;76.83
26657;BME280;14279;50.010;8.260;2023-11-25T12:26:38;99843.72;;;5.57;77.90
26657;BME280;14279;50.010;8.260;2023-11-25T12:29:04;99839.63;;;5.52;78.37
26657;BME280;14279;50.010;8.260;2023-11-25T12:35:09;99853.63;;;5.45;79.28
26657;BME280;14279;50.010;8.260;2023-11-25T12:37:53;99841.84;;;5.37;80.39
26657;BME280;14279;50.010;8.260;2023-11-25T12:40:45;99833.34;;;5.34;80.02
26657;BME280;14279;50.010;8.260;2023-11-25T12:43:12;99844.16;;;5.45;79.83
26657;BME280;14279;50.010;8.260;2023-11-25T12:45:44;99831.19;;;5.47;80.04
26657;BME280;14279;50.010;8.260;2023-11-25T12:48:13;99842.22;;;5.52;79.60
26657;BME280;14279;50.010;8.260;2023-11-25T12:51:02;99847.91;;;5.62;79.65
26657;BME280;14279;50.010;8.260;2023-11-25T12:53:56;99843.25;;;5.46;78.91
26657;BME280;14279;50.010;8.260;2023-11-25T12:56:22;99855.97;;;5.52;79.21
26657;BME280;14279;50.010;8.260;2023-11-25T12:59:18;99849.94;;;5.52;79.40
26657;BME280;14279;50.010;8.260;2023-11-25T13:02:45;99838.19;;;5.43;79.40
26657;BME280;14279;50.010;8.260;2023-11-25T13:05:18;99836.84;;;5.58;79.90
26657;BME280;14279;50.010;8.260;2023-11-25T13:07:48;99836.47;;;5.69;79.84
26657;BME280;14279;50.010;8.260;2023-11-25T13:10:14;99828.25;;;5.83;79.59
26657;BME280;14279;50.010;8.260;2023-11-25T13:12:39;99843.50;;;5.65;79.39
26657;BME280;14279;50.010;8.260;2023-11-25T13:15:04;99824.41;;;5.69;79.45
26657;BME280;14279;50.010;8.260;2023-11-25T13:18:01;99815.34;;;5.83;79.33
26657;BME280;14279;50.010;8.260;2023-11-25T13:20:27;99819.50;;;5.87;79.51
26657;BME280;14279;50.010;8.260;2023-11-25T13:22:53;99825.81;;;5.78;79.00
26657;BME280;14279;50.010;8.260;2023-11-25T13:25:25;99814.06;;;5.95;77.78
26657;BME280;14279;50.010;8.260;2023-11-25T13:27:51;99807.16;;;6.19;77.59
26657;BME280;14279;50.010;8.260;2023-11-25T13:30:17;99805.56;;;6.16;76.99